TTPP/POS METAR and TAF weather

Enter ICAO airport designator
Station Type Date Time Source
TTPP METAR 2021/03/08 03:00 UTC NOAA

TTPP 080300Z 12004KT 9999 FEW016 SCT040 24/22 Q1014 NOSIG


Station Type Date Time Source
TTPP Decoded METAR 2021/03/08 03:00 UTC NOAA

Piarco International Airport, Trinidad, Trinidad and Tobago (TTPP) 10-37N 061-21W 15M
Mar 07, 2021 - 10:00 PM EST / 2021.03.08 0300 UTC
Wind: from the ESE (120 degrees) at 5 MPH (4 KT):0
Visibility: greater than 7 mile(s):0
Sky conditions: partly cloudy
Temperature: 75 F (24 C)
Dew Point: 71 F (22 C)
Relative Humidity: 88%
Pressure (altimeter): 29.94 in. Hg (1014 hPa)
ob: TTPP 080300Z 12004KT 9999 FEW016 SCT040 24/22 Q1014 NOSIG
cycle: 3

Station Type Date Time Source
TTPP TAF 2021/03/08 00:00 UTC NOAA

TAF TTPP 072200Z 0800/0824 09005KT 9999 FEW016 PROB40
TEMPO 0800/0808 09005G20KT 6000 SHRA BKN015 SCT038
BECMG 0813/0815 10015KT SCT020

Example: see airport list